State College, PA

12:19 PM EDT on 三月 27, 2017 (GMT -0400)
State College South | | Change Station

高度 1137 ft 40.79 °N, 77.84 °W | Updated 19 seconds ago

曇
57.4 °F
体感気温 57.4 °F
3.4
風 変数 風 から 西
Gusts 3.4 Mph

今日
高い -- | 低 -- °F
--% 降水確率
昨日
高い -- | 低 -- °F
Precip. -- インチ
気圧 30.02 インチ
視程 10.0 マイル
曇 1000 ft
露点温度 44 °F
湿度 61%
降水 0.24 インチ
積雪深 利用不可。
7:02 AM 7:31 PM
二十六夜, 0% visible
METAR KUNV 271553Z 22008KT 10SM OVC010 10/08 A3002
気圧 30.02 インチ
視程 10.0 マイル
曇 1000 ft
露点温度 44 °F
湿度 61%
降水 0.24 インチ
積雪深 利用不可。
7:02 AM 7:31 PM
二十六夜, 0% visible
METAR KUNV 271553Z 22008KT 10SM OVC010 10/08 A3002

Get Severe Weather Alerts

Thanks for signing up!

Be on the lookout for a verification email in your inbox.

You'll start receiving the daily forecast at 8 AM.

×

10-Day Weather Forecast

Almanac

天文

Mar. 27, 2017 入り
実時間
常用薄明
航海薄明
天文薄明
可視光の長さ
可照時間
Tomorrow will be .
, % of the Moon is Illuminated

今日の極値

State Highs State Lows

Community

WunderPhotos

Upload Photos

1,962,540 写真がアップロードされました!

WunderBlog® & News

Nearby

空気品質

  空気品質 大気質指数 汚染物質
Not available.

積雪深

Station Depth 高度

地震活動

Distance Mag. Time & Date
Minimum magnitude displayed is 2.5.

地震活動

Distance Mag. Time & Date
Minimum magnitude displayed is 2.5.

沿岸の水温

地名 気温

Stations

最寄りの気象観測所

観測所位置 温度 体感気温(寒さ) 露点温度 湿度 Precip. 高度 更新日時 タイプする
                   

Watches & Warnings

There are currently no watches in effect.